Terminal Aerodrome Forecast
Issued by NWS

Home | Current Version | Previous Version | Text Only | Print | Product List | Glossary On
Versions: 1 2 3 4 5 6 7 8 9 10 11 12 13 14
000
FTUS45 KRIW 240500
TAFJAC
TAF
KJAC 240526Z 2406/2506 VRB04KT P6SM SKC
     FM241800 21015G25KT P6SM FEW120
     FM250130 20008KT P6SM FEW120
     FM250500 35006KT P6SM SKC
      AMD LTD TO CLD VIS AND WIND=

USA.gov is the U.S. government's official web portal to all federal, state and local government web resources and services.